sensor_id;sensor_type;location;lat;lon;timestamp;P1;durP1;ratioP1;P2;durP2;ratioP2
11767;SDS011;5941;57.652;12.514;2023-03-14T00:01:08;1.90;;;0.90;;
11767;SDS011;5941;57.652;12.514;2023-03-14T00:03:34;5.37;;;0.93;;
11767;SDS011;5941;57.652;12.514;2023-03-14T00:06:04;1.80;;;1.00;;
11767;SDS011;5941;57.652;12.514;2023-03-14T00:08:30;2.33;;;0.83;;
11767;SDS011;5941;57.652;12.514;2023-03-14T00:10:56;2.00;;;0.90;;
11767;SDS011;5941;57.652;12.514;2023-03-14T00:13:25;3.40;;;0.70;;
11767;SDS011;5941;57.652;12.514;2023-03-14T00:15:51;5.93;;;0.90;;
11767;SDS011;5941;57.652;12.514;2023-03-14T00:18:17;2.17;;;0.63;;
11767;SDS011;5941;57.652;12.514;2023-03-14T00:20:44;2.87;;;0.97;;
11767;SDS011;5941;57.652;12.514;2023-03-14T00:23:10;3.07;;;1.07;;
11767;SDS011;5941;57.652;12.514;2023-03-14T00:25:36;2.80;;;0.80;;
11767;SDS011;5941;57.652;12.514;2023-03-14T00:28:02;2.23;;;0.80;;
11767;SDS011;5941;57.652;12.514;2023-03-14T00:30:28;4.67;;;1.10;;
11767;SDS011;5941;57.652;12.514;2023-03-14T00:32:54;1.80;;;0.80;;
11767;SDS011;5941;57.652;12.514;2023-03-14T00:35:20;1.93;;;0.80;;
11767;SDS011;5941;57.652;12.514;2023-03-14T00:37:46;2.83;;;0.90;;
11767;SDS011;5941;57.652;12.514;2023-03-14T00:40:12;0.80;;;0.70;;
11767;SDS011;5941;57.652;12.514;2023-03-14T00:42:38;3.47;;;1.07;;
11767;SDS011;5941;57.652;12.514;2023-03-14T00:45:04;3.90;;;0.90;;
11767;SDS011;5941;57.652;12.514;2023-03-14T00:47:32;5.47;;;1.00;;
11767;SDS011;5941;57.652;12.514;2023-03-14T00:49:58;4.53;;;1.10;;
11767;SDS011;5941;57.652;12.514;2023-03-14T00:52:24;5.23;;;1.20;;
11767;SDS011;5941;57.652;12.514;2023-03-14T00:54:50;6.53;;;1.30;;
11767;SDS011;5941;57.652;12.514;2023-03-14T00:57:16;3.23;;;1.00;;
11767;SDS011;5941;57.652;12.514;2023-03-14T00:59:42;1.97;;;0.87;;
11767;SDS011;5941;57.652;12.514;2023-03-14T01:02:08;1.97;;;0.70;;
11767;SDS011;5941;57.652;12.514;2023-03-14T01:04:34;3.57;;;1.00;;
11767;SDS011;5941;57.652;12.514;2023-03-14T01:07:00;3.63;;;1.07;;
11767;SDS011;5941;57.652;12.514;2023-03-14T01:09:26;3.80;;;1.00;;
11767;SDS011;5941;57.652;12.514;2023-03-14T01:11:52;2.47;;;0.70;;
11767;SDS011;5941;57.652;12.514;2023-03-14T01:14:17;2.00;;;0.93;;
11767;SDS011;5941;57.652;12.514;2023-03-14T01:16:43;2.60;;;0.90;;
11767;SDS011;5941;57.652;12.514;2023-03-14T01:19:09;6.23;;;1.10;;
11767;SDS011;5941;57.652;12.514;2023-03-14T01:21:35;3.73;;;0.90;;
11767;SDS011;5941;57.652;12.514;2023-03-14T01:24:02;4.13;;;1.20;;
11767;SDS011;5941;57.652;12.514;2023-03-14T01:26:30;4.10;;;1.00;;
11767;SDS011;5941;57.652;12.514;2023-03-14T01:28:56;3.40;;;1.40;;
11767;SDS011;5941;57.652;12.514;2023-03-14T01:31:23;4.97;;;1.20;;
11767;SDS011;5941;57.652;12.514;2023-03-14T01:33:49;2.27;;;1.03;;
11767;SDS011;5941;57.652;12.514;2023-03-14T01:36:15;2.30;;;1.10;;
11767;SDS011;5941;57.652;12.514;2023-03-14T01:38:41;2.87;;;1.00;;
11767;SDS011;5941;57.652;12.514;2023-03-14T01:41:08;3.40;;;1.40;;
11767;SDS011;5941;57.652;12.514;2023-03-14T01:43:37;3.93;;;1.30;;
11767;SDS011;5941;57.652;12.514;2023-03-14T01:51:09;2.13;;;0.73;;
11767;SDS011;5941;57.652;12.514;2023-03-14T01:53:36;4.97;;;1.30;;
11767;SDS011;5941;57.652;12.514;2023-03-14T01:56:03;4.40;;;1.00;;
11767;SDS011;5941;57.652;12.514;2023-03-14T01:58:29;4.87;;;1.00;;
11767;SDS011;5941;57.652;12.514;2023-03-14T02:00:59;3.03;;;0.83;;
11767;SDS011;5941;57.652;12.514;2023-03-14T02:03:27;5.17;;;0.97;;
11767;SDS011;5941;57.652;12.514;2023-03-14T02:05:53;2.33;;;1.10;;
11767;SDS011;5941;57.652;12.514;2023-03-14T02:08:21;2.97;;;1.10;;
11767;SDS011;5941;57.652;12.514;2023-03-14T02:10:48;6.47;;;1.20;;
11767;SDS011;5941;57.652;12.514;2023-03-14T02:13:15;3.97;;;1.30;;
11767;SDS011;5941;57.652;12.514;2023-03-14T02:15:41;2.00;;;0.80;;
11767;SDS011;5941;57.652;12.514;2023-03-14T02:18:08;4.37;;;1.10;;
11767;SDS011;5941;57.652;12.514;2023-03-14T02:23:16;1.47;;;0.70;;
11767;SDS011;5941;57.652;12.514;2023-03-14T02:25:48;2.43;;;1.10;;
11767;SDS011;5941;57.652;12.514;2023-03-14T02:28:15;5.63;;;1.00;;
11767;SDS011;5941;57.652;12.514;2023-03-14T02:30:42;3.93;;;0.87;;
11767;SDS011;5941;57.652;12.514;2023-03-14T02:33:08;3.20;;;0.90;;
11767;SDS011;5941;57.652;12.514;2023-03-14T02:35:57;2.63;;;0.80;;
11767;SDS011;5941;57.652;12.514;2023-03-14T02:41:07;2.30;;;0.93;;
11767;SDS011;5941;57.652;12.514;2023-03-14T02:43:33;2.77;;;0.80;;
11767;SDS011;5941;57.652;12.514;2023-03-14T02:45:59;2.67;;;0.70;;
11767;SDS011;5941;57.652;12.514;2023-03-14T02:48:26;3.77;;;0.60;;
11767;SDS011;5941;57.652;12.514;2023-03-14T02:50:54;1.27;;;0.70;;
11767;SDS011;5941;57.652;12.514;2023-03-14T02:53:22;0.87;;;0.47;;
11767;SDS011;5941;57.652;12.514;2023-03-14T02:55:49;1.13;;;0.60;;
11767;SDS011;5941;57.652;12.514;2023-03-14T02:58:15;1.47;;;0.63;;
11767;SDS011;5941;57.652;12.514;2023-03-14T03:00:41;0.83;;;0.60;;
11767;SDS011;5941;57.652;12.514;2023-03-14T03:03:07;1.77;;;0.50;;
11767;SDS011;5941;57.652;12.514;2023-03-14T03:05:33;0.63;;;0.40;;
11767;SDS011;5941;57.652;12.514;2023-03-14T03:07:59;2.63;;;0.50;;
11767;SDS011;5941;57.652;12.514;2023-03-14T03:10:26;2.00;;;0.60;;
11767;SDS011;5941;57.652;12.514;2023-03-14T03:12:52;1.90;;;0.57;;
11767;SDS011;5941;57.652;12.514;2023-03-14T03:15:18;2.70;;;0.63;;
11767;SDS011;5941;57.652;12.514;2023-03-14T03:17:44;2.30;;;0.60;;
11767;SDS011;5941;57.652;12.514;2023-03-14T03:20:10;1.70;;;0.50;;
11767;SDS011;5941;57.652;12.514;2023-03-14T03:22:37;0.63;;;0.50;;
11767;SDS011;5941;57.652;12.514;2023-03-14T03:25:04;0.80;;;0.40;;
11767;SDS011;5941;57.652;12.514;2023-03-14T03:27:30;2.80;;;0.60;;
11767;SDS011;5941;57.652;12.514;2023-03-14T03:29:56;0.40;;;0.40;;
11767;SDS011;5941;57.652;12.514;2023-03-14T03:32:22;1.37;;;0.37;;
11767;SDS011;5941;57.652;12.514;2023-03-14T03:34:48;1.33;;;0.60;;
11767;SDS011;5941;57.652;12.514;2023-03-14T03:37:14;1.03;;;0.40;;
11767;SDS011;5941;57.652;12.514;2023-03-14T03:39:40;1.23;;;0.47;;
11767;SDS011;5941;57.652;12.514;2023-03-14T03:42:06;0.57;;;0.40;;
11767;SDS011;5941;57.652;12.514;2023-03-14T03:44:32;2.03;;;0.40;;
11767;SDS011;5941;57.652;12.514;2023-03-14T03:46:58;1.23;;;0.50;;
11767;SDS011;5941;57.652;12.514;2023-03-14T03:49:28;1.03;;;0.30;;
11767;SDS011;5941;57.652;12.514;2023-03-14T03:51:53;0.90;;;0.70;;
11767;SDS011;5941;57.652;12.514;2023-03-14T03:54:19;1.03;;;0.53;;
11767;SDS011;5941;57.652;12.514;2023-03-14T03:56:45;2.00;;;0.60;;
11767;SDS011;5941;57.652;12.514;2023-03-14T03:59:11;2.13;;;0.60;;
11767;SDS011;5941;57.652;12.514;2023-03-14T04:01:37;1.87;;;0.67;;
11767;SDS011;5941;57.652;12.514;2023-03-14T04:04:03;2.23;;;0.37;;
11767;SDS011;5941;57.652;12.514;2023-03-14T04:06:29;1.83;;;0.50;;
11767;SDS011;5941;57.652;12.514;2023-03-14T04:08:55;2.53;;;0.60;;
11767;SDS011;5941;57.652;12.514;2023-03-14T04:11:21;0.93;;;0.53;;
11767;SDS011;5941;57.652;12.514;2023-03-14T04:13:48;2.53;;;0.70;;
11767;SDS011;5941;57.652;12.514;2023-03-14T04:16:15;2.73;;;0.70;;
11767;SDS011;5941;57.652;12.514;2023-03-14T04:18:42;3.13;;;0.90;;
11767;SDS011;5941;57.652;12.514;2023-03-14T04:21:08;3.07;;;1.00;;
11767;SDS011;5941;57.652;12.514;2023-03-14T04:23:34;2.40;;;0.80;;
11767;SDS011;5941;57.652;12.514;2023-03-14T04:25:59;2.20;;;0.97;;
11767;SDS011;5941;57.652;12.514;2023-03-14T04:28:25;3.97;;;0.93;;
11767;SDS011;5941;57.652;12.514;2023-03-14T04:30:52;3.70;;;0.93;;
11767;SDS011;5941;57.652;12.514;2023-03-14T04:33:18;3.47;;;1.13;;
11767;SDS011;5941;57.652;12.514;2023-03-14T04:35:44;3.27;;;0.97;;
11767;SDS011;5941;57.652;12.514;2023-03-14T04:38:10;6.33;;;1.40;;
11767;SDS011;5941;57.652;12.514;2023-03-14T04:40:36;2.00;;;0.90;;
11767;SDS011;5941;57.652;12.514;2023-03-14T04:43:03;2.33;;;0.90;;
11767;SDS011;5941;57.652;12.514;2023-03-14T04:45:29;6.37;;;1.10;;
11767;SDS011;5941;57.652;12.514;2023-03-14T04:47:54;3.90;;;0.97;;
11767;SDS011;5941;57.652;12.514;2023-03-14T04:50:20;4.90;;;1.10;;
11767;SDS011;5941;57.652;12.514;2023-03-14T04:52:46;4.30;;;1.10;;
11767;SDS011;5941;57.652;12.514;2023-03-14T04:55:12;5.00;;;1.10;;
11767;SDS011;5941;57.652;12.514;2023-03-14T04:57:38;4.77;;;1.10;;
11767;SDS011;5941;57.652;12.514;2023-03-14T05:00:05;5.10;;;1.00;;
11767;SDS011;5941;57.652;12.514;2023-03-14T05:02:31;5.90;;;1.60;;
11767;SDS011;5941;57.652;12.514;2023-03-14T05:04:57;4.17;;;0.93;;
11767;SDS011;5941;57.652;12.514;2023-03-14T05:07:23;6.40;;;1.47;;
11767;SDS011;5941;57.652;12.514;2023-03-14T05:09:49;6.67;;;1.33;;
11767;SDS011;5941;57.652;12.514;2023-03-14T05:12:15;8.70;;;1.50;;
11767;SDS011;5941;57.652;12.514;2023-03-14T05:14:41;6.83;;;1.10;;
11767;SDS011;5941;57.652;12.514;2023-03-14T05:17:07;5.47;;;1.27;;
11767;SDS011;5941;57.652;12.514;2023-03-14T05:19:33;5.87;;;1.20;;
11767;SDS011;5941;57.652;12.514;2023-03-14T05:21:59;6.80;;;1.37;;
11767;SDS011;5941;57.652;12.514;2023-03-14T05:24:25;5.63;;;1.20;;
11767;SDS011;5941;57.652;12.514;2023-03-14T05:26:51;4.10;;;1.10;;
11767;SDS011;5941;57.652;12.514;2023-03-14T05:29:17;5.57;;;1.03;;
11767;SDS011;5941;57.652;12.514;2023-03-14T05:31:43;4.80;;;1.00;;
11767;SDS011;5941;57.652;12.514;2023-03-14T05:34:09;3.13;;;0.83;;
11767;SDS011;5941;57.652;12.514;2023-03-14T05:36:34;4.40;;;1.10;;
11767;SDS011;5941;57.652;12.514;2023-03-14T05:39:01;6.73;;;0.90;;
11767;SDS011;5941;57.652;12.514;2023-03-14T05:41:27;2.73;;;0.90;;
11767;SDS011;5941;57.652;12.514;2023-03-14T05:43:54;2.90;;;1.00;;
11767;SDS011;5941;57.652;12.514;2023-03-14T05:46:20;2.20;;;0.87;;
11767;SDS011;5941;57.652;12.514;2023-03-14T05:48:46;2.90;;;0.70;;
11767;SDS011;5941;57.652;12.514;2023-03-14T05:51:11;4.57;;;0.90;;
11767;SDS011;5941;57.652;12.514;2023-03-14T05:53:37;2.87;;;0.80;;
11767;SDS011;5941;57.652;12.514;2023-03-14T05:56:03;3.67;;;0.70;;
11767;SDS011;5941;57.652;12.514;2023-03-14T05:58:29;4.63;;;1.10;;
11767;SDS011;5941;57.652;12.514;2023-03-14T06:00:55;3.13;;;0.60;;
11767;SDS011;5941;57.652;12.514;2023-03-14T06:03:21;2.40;;;0.53;;
11767;SDS011;5941;57.652;12.514;2023-03-14T06:05:49;2.40;;;0.70;;
11767;SDS011;5941;57.652;12.514;2023-03-14T06:08:16;2.03;;;0.70;;
11767;SDS011;5941;57.652;12.514;2023-03-14T06:10:42;2.50;;;0.80;;
11767;SDS011;5941;57.652;12.514;2023-03-14T06:13:07;2.70;;;0.60;;
11767;SDS011;5941;57.652;12.514;2023-03-14T06:15:33;1.67;;;0.70;;
11767;SDS011;5941;57.652;12.514;2023-03-14T06:18:00;4.10;;;0.80;;
11767;SDS011;5941;57.652;12.514;2023-03-14T06:20:26;3.03;;;0.77;;
11767;SDS011;5941;57.652;12.514;2023-03-14T06:22:52;1.23;;;0.57;;
11767;SDS011;5941;57.652;12.514;2023-03-14T06:25:18;1.87;;;0.53;;
11767;SDS011;5941;57.652;12.514;2023-03-14T06:27:44;2.50;;;0.60;;
11767;SDS011;5941;57.652;12.514;2023-03-14T06:30:10;3.33;;;0.70;;
11767;SDS011;5941;57.652;12.514;2023-03-14T06:32:36;1.30;;;0.50;;
11767;SDS011;5941;57.652;12.514;2023-03-14T06:35:02;2.70;;;0.70;;
11767;SDS011;5941;57.652;12.514;2023-03-14T06:37:28;4.67;;;0.70;;
11767;SDS011;5941;57.652;12.514;2023-03-14T06:39:55;2.70;;;0.53;;
11767;SDS011;5941;57.652;12.514;2023-03-14T06:42:21;1.73;;;0.60;;
11767;SDS011;5941;57.652;12.514;2023-03-14T06:44:47;3.60;;;0.70;;
11767;SDS011;5941;57.652;12.514;2023-03-14T06:47:13;3.03;;;0.83;;
11767;SDS011;5941;57.652;12.514;2023-03-14T06:49:39;5.77;;;1.00;;
11767;SDS011;5941;57.652;12.514;2023-03-14T06:52:05;2.77;;;0.87;;
11767;SDS011;5941;57.652;12.514;2023-03-14T06:54:31;2.37;;;0.87;;
11767;SDS011;5941;57.652;12.514;2023-03-14T06:56:57;3.13;;;0.87;;
11767;SDS011;5941;57.652;12.514;2023-03-14T06:59:23;6.50;;;0.90;;
11767;SDS011;5941;57.652;12.514;2023-03-14T07:01:49;3.67;;;1.00;;
11767;SDS011;5941;57.652;12.514;2023-03-14T07:04:15;4.20;;;1.00;;
11767;SDS011;5941;57.652;12.514;2023-03-14T07:06:41;1.43;;;0.97;;
11767;SDS011;5941;57.652;12.514;2023-03-14T07:09:09;6.53;;;1.50;;
11767;SDS011;5941;57.652;12.514;2023-03-14T07:11:35;5.07;;;1.30;;
11767;SDS011;5941;57.652;12.514;2023-03-14T07:14:01;5.70;;;1.20;;
11767;SDS011;5941;57.652;12.514;2023-03-14T07:16:27;4.97;;;1.60;;
11767;SDS011;5941;57.652;12.514;2023-03-14T07:18:56;3.47;;;1.27;;
11767;SDS011;5941;57.652;12.514;2023-03-14T07:21:22;8.20;;;1.53;;
11767;SDS011;5941;57.652;12.514;2023-03-14T07:23:48;6.17;;;1.43;;
11767;SDS011;5941;57.652;12.514;2023-03-14T07:26:14;8.53;;;2.20;;
11767;SDS011;5941;57.652;12.514;2023-03-14T07:28:40;9.17;;;1.83;;
11767;SDS011;5941;57.652;12.514;2023-03-14T07:31:06;8.43;;;1.50;;
11767;SDS011;5941;57.652;12.514;2023-03-14T07:33:32;8.10;;;1.30;;
11767;SDS011;5941;57.652;12.514;2023-03-14T07:35:58;4.60;;;1.77;;
11767;SDS011;5941;57.652;12.514;2023-03-14T07:38:24;9.27;;;1.50;;
11767;SDS011;5941;57.652;12.514;2023-03-14T07:40:50;11.40;;;2.07;;
11767;SDS011;5941;57.652;12.514;2023-03-14T07:43:23;7.40;;;1.60;;
11767;SDS011;5941;57.652;12.514;2023-03-14T07:45:49;12.13;;;2.10;;
11767;SDS011;5941;57.652;12.514;2023-03-14T07:48:15;8.27;;;1.80;;
11767;SDS011;5941;57.652;12.514;2023-03-14T07:50:41;5.47;;;2.00;;
11767;SDS011;5941;57.652;12.514;2023-03-14T07:53:06;8.10;;;1.90;;
11767;SDS011;5941;57.652;12.514;2023-03-14T07:55:32;6.07;;;1.67;;
11767;SDS011;5941;57.652;12.514;2023-03-14T07:57:58;6.60;;;1.73;;
11767;SDS011;5941;57.652;12.514;2023-03-14T08:00:24;7.73;;;2.10;;
11767;SDS011;5941;57.652;12.514;2023-03-14T08:02:50;11.93;;;2.20;;
11767;SDS011;5941;57.652;12.514;2023-03-14T08:05:16;7.30;;;1.63;;
11767;SDS011;5941;57.652;12.514;2023-03-14T08:07:42;7.53;;;2.50;;
11767;SDS011;5941;57.652;12.514;2023-03-14T08:10:08;9.67;;;1.80;;
11767;SDS011;5941;57.652;12.514;2023-03-14T08:12:35;9.43;;;1.93;;
11767;SDS011;5941;57.652;12.514;2023-03-14T08:15:00;7.90;;;1.67;;
11767;SDS011;5941;57.652;12.514;2023-03-14T08:17:27;7.90;;;1.57;;
11767;SDS011;5941;57.652;12.514;2023-03-14T08:19:53;8.00;;;1.53;;
11767;SDS011;5941;57.652;12.514;2023-03-14T08:22:19;7.17;;;1.60;;
11767;SDS011;5941;57.652;12.514;2023-03-14T08:24:45;8.33;;;1.90;;
11767;SDS011;5941;57.652;12.514;2023-03-14T08:27:11;7.50;;;1.50;;
11767;SDS011;5941;57.652;12.514;2023-03-14T08:29:37;8.50;;;1.53;;
11767;SDS011;5941;57.652;12.514;2023-03-14T08:32:03;8.77;;;1.80;;
11767;SDS011;5941;57.652;12.514;2023-03-14T08:34:29;8.77;;;1.67;;
11767;SDS011;5941;57.652;12.514;2023-03-14T08:36:54;6.73;;;1.43;;
11767;SDS011;5941;57.652;12.514;2023-03-14T08:39:21;7.77;;;1.37;;
11767;SDS011;5941;57.652;12.514;2023-03-14T08:41:49;6.67;;;1.40;;
11767;SDS011;5941;57.652;12.514;2023-03-14T08:44:15;6.70;;;1.20;;
11767;SDS011;5941;57.652;12.514;2023-03-14T08:46:41;6.13;;;1.47;;
11767;SDS011;5941;57.652;12.514;2023-03-14T08:49:06;2.87;;;1.20;;
11767;SDS011;5941;57.652;12.514;2023-03-14T08:51:32;6.73;;;1.20;;
11767;SDS011;5941;57.652;12.514;2023-03-14T08:53:58;6.53;;;1.30;;
11767;SDS011;5941;57.652;12.514;2023-03-14T08:56:24;7.83;;;1.33;;
11767;SDS011;5941;57.652;12.514;2023-03-14T08:58:50;5.90;;;0.97;;
11767;SDS011;5941;57.652;12.514;2023-03-14T09:01:16;3.87;;;1.07;;
11767;SDS011;5941;57.652;12.514;2023-03-14T09:03:44;5.50;;;0.97;;
11767;SDS011;5941;57.652;12.514;2023-03-14T09:06:12;5.13;;;1.33;;
11767;SDS011;5941;57.652;12.514;2023-03-14T09:08:37;6.43;;;1.43;;
11767;SDS011;5941;57.652;12.514;2023-03-14T09:11:06;6.83;;;1.50;;
11767;SDS011;5941;57.652;12.514;2023-03-14T09:13:32;8.53;;;1.40;;
11767;SDS011;5941;57.652;12.514;2023-03-14T09:15:58;9.27;;;1.80;;
11767;SDS011;5941;57.652;12.514;2023-03-14T09:18:24;10.17;;;1.40;;
11767;SDS011;5941;57.652;12.514;2023-03-14T09:20:50;6.97;;;1.77;;
11767;SDS011;5941;57.652;12.514;2023-03-14T09:23:16;6.80;;;1.43;;
11767;SDS011;5941;57.652;12.514;2023-03-14T09:25:42;5.40;;;1.37;;
11767;SDS011;5941;57.652;12.514;2023-03-14T09:28:08;8.07;;;1.80;;
11767;SDS011;5941;57.652;12.514;2023-03-14T09:30:34;7.03;;;1.70;;
11767;SDS011;5941;57.652;12.514;2023-03-14T09:33:00;9.47;;;1.90;;
11767;SDS011;5941;57.652;12.514;2023-03-14T09:35:26;9.73;;;1.93;;
11767;SDS011;5941;57.652;12.514;2023-03-14T09:37:52;9.73;;;1.23;;
11767;SDS011;5941;57.652;12.514;2023-03-14T09:40:18;10.77;;;1.63;;
11767;SDS011;5941;57.652;12.514;2023-03-14T09:42:45;9.30;;;1.50;;
11767;SDS011;5941;57.652;12.514;2023-03-14T09:45:15;10.83;;;2.07;;
11767;SDS011;5941;57.652;12.514;2023-03-14T09:47:42;6.73;;;1.33;;
11767;SDS011;5941;57.652;12.514;2023-03-14T09:50:13;7.20;;;1.50;;
11767;SDS011;5941;57.652;12.514;2023-03-14T09:52:40;9.37;;;2.00;;
11767;SDS011;5941;57.652;12.514;2023-03-14T09:57:34;6.63;;;1.83;;
11767;SDS011;5941;57.652;12.514;2023-03-14T10:00:12;5.30;;;1.47;;
11767;SDS011;5941;57.652;12.514;2023-03-14T10:02:40;4.23;;;1.20;;
11767;SDS011;5941;57.652;12.514;2023-03-14T10:05:13;9.23;;;1.77;;
11767;SDS011;5941;57.652;12.514;2023-03-14T10:07:40;16.00;;;1.60;;
11767;SDS011;5941;57.652;12.514;2023-03-14T10:10:12;11.93;;;1.70;;
11767;SDS011;5941;57.652;12.514;2023-03-14T10:12:39;4.50;;;1.27;;
11767;SDS011;5941;57.652;12.514;2023-03-14T10:15:08;9.73;;;1.30;;
11767;SDS011;5941;57.652;12.514;2023-03-14T10:17:52;5.80;;;1.20;;
11767;SDS011;5941;57.652;12.514;2023-03-14T10:20:37;5.43;;;1.33;;
11767;SDS011;5941;57.652;12.514;2023-03-14T10:23:16;3.10;;;1.20;;
11767;SDS011;5941;57.652;12.514;2023-03-14T10:25:44;6.70;;;1.40;;
11767;SDS011;5941;57.652;12.514;2023-03-14T10:28:24;8.40;;;1.43;;
11767;SDS011;5941;57.652;12.514;2023-03-14T10:30:50;5.40;;;1.03;;
11767;SDS011;5941;57.652;12.514;2023-03-14T10:35:45;6.40;;;1.73;;
11767;SDS011;5941;57.652;12.514;2023-03-14T10:38:15;5.60;;;1.20;;
11767;SDS011;5941;57.652;12.514;2023-03-14T10:40:46;5.73;;;1.50;;
11767;SDS011;5941;57.652;12.514;2023-03-14T10:43:18;7.90;;;1.60;;
11767;SDS011;5941;57.652;12.514;2023-03-14T10:45:51;3.93;;;1.20;;
11767;SDS011;5941;57.652;12.514;2023-03-14T10:53:25;4.50;;;1.07;;
11767;SDS011;5941;57.652;12.514;2023-03-14T10:55:52;6.37;;;1.43;;
11767;SDS011;5941;57.652;12.514;2023-03-14T10:58:25;4.33;;;1.20;;
11767;SDS011;5941;57.652;12.514;2023-03-14T11:01:03;6.93;;;1.07;;
11767;SDS011;5941;57.652;12.514;2023-03-14T11:03:32;8.80;;;1.27;;
11767;SDS011;5941;57.652;12.514;2023-03-14T11:06:03;8.63;;;1.20;;
11767;SDS011;5941;57.652;12.514;2023-03-14T11:08:33;6.87;;;1.27;;
11767;SDS011;5941;57.652;12.514;2023-03-14T11:11:07;4.83;;;1.20;;
11767;SDS011;5941;57.652;12.514;2023-03-14T11:16:12;5.83;;;1.40;;
11767;SDS011;5941;57.652;12.514;2023-03-14T11:19:41;5.87;;;0.83;;
11767;SDS011;5941;57.652;12.514;2023-03-14T11:31:46;7.27;;;1.57;;
11767;SDS011;5941;57.652;12.514;2023-03-14T11:36:46;7.03;;;1.13;;
11767;SDS011;5941;57.652;12.514;2023-03-14T11:39:15;5.60;;;1.57;;
11767;SDS011;5941;57.652;12.514;2023-03-14T11:41:49;3.27;;;0.97;;
11767;SDS011;5941;57.652;12.514;2023-03-14T11:44:20;3.93;;;0.97;;
11767;SDS011;5941;57.652;12.514;2023-03-14T11:46:50;3.57;;;0.80;;
11767;SDS011;5941;57.652;12.514;2023-03-14T11:49:27;3.10;;;0.90;;
11767;SDS011;5941;57.652;12.514;2023-03-14T11:51:56;4.47;;;0.70;;
11767;SDS011;5941;57.652;12.514;2023-03-14T11:56:52;1.50;;;0.70;;
11767;SDS011;5941;57.652;12.514;2023-03-14T11:59:22;7.00;;;0.97;;
11767;SDS011;5941;57.652;12.514;2023-03-14T12:04:34;1.97;;;0.80;;
11767;SDS011;5941;57.652;12.514;2023-03-14T12:07:08;1.83;;;0.80;;
11767;SDS011;5941;57.652;12.514;2023-03-14T12:09:37;5.87;;;0.90;;
11767;SDS011;5941;57.652;12.514;2023-03-14T12:12:03;3.50;;;0.63;;
11767;SDS011;5941;57.652;12.514;2023-03-14T12:14:34;3.37;;;0.73;;
11767;SDS011;5941;57.652;12.514;2023-03-14T12:17:07;2.53;;;0.90;;
11767;SDS011;5941;57.652;12.514;2023-03-14T12:19:44;2.23;;;0.60;;
11767;SDS011;5941;57.652;12.514;2023-03-14T12:22:30;4.03;;;0.83;;
11767;SDS011;5941;57.652;12.514;2023-03-14T12:25:04;3.83;;;0.80;;
11767;SDS011;5941;57.652;12.514;2023-03-14T12:27:42;4.47;;;0.90;;
11767;SDS011;5941;57.652;12.514;2023-03-14T12:36:11;4.30;;;0.80;;
11767;SDS011;5941;57.652;12.514;2023-03-14T12:38:31;4.53;;;1.00;;
11767;SDS011;5941;57.652;12.514;2023-03-14T12:43:43;5.93;;;0.90;;
11767;SDS011;5941;57.652;12.514;2023-03-14T12:48:35;3.77;;;0.90;;
11767;SDS011;5941;57.652;12.514;2023-03-14T12:51:03;2.63;;;0.60;;
11767;SDS011;5941;57.652;12.514;2023-03-14T13:01:25;3.73;;;0.80;;
11767;SDS011;5941;57.652;12.514;2023-03-14T13:03:52;2.97;;;0.80;;
11767;SDS011;5941;57.652;12.514;2023-03-14T13:11:49;2.53;;;0.90;;
11767;SDS011;5941;57.652;12.514;2023-03-14T13:14:15;4.10;;;0.50;;
11767;SDS011;5941;57.652;12.514;2023-03-14T13:16:41;3.77;;;0.70;;
11767;SDS011;5941;57.652;12.514;2023-03-14T13:22:50;1.87;;;0.57;;
11767;SDS011;5941;57.652;12.514;2023-03-14T13:25:04;2.73;;;0.70;;
11767;SDS011;5941;57.652;12.514;2023-03-14T13:27:32;4.10;;;0.70;;
11767;SDS011;5941;57.652;12.514;2023-03-14T13:29:58;4.30;;;0.70;;
11767;SDS011;5941;57.652;12.514;2023-03-14T13:32:28;1.73;;;0.50;;
11767;SDS011;5941;57.652;12.514;2023-03-14T13:34:55;3.87;;;0.80;;
11767;SDS011;5941;57.652;12.514;2023-03-14T13:37:22;4.07;;;0.60;;
11767;SDS011;5941;57.652;12.514;2023-03-14T13:39:49;2.43;;;0.90;;
11767;SDS011;5941;57.652;12.514;2023-03-14T13:42:15;3.30;;;0.70;;
11767;SDS011;5941;57.652;12.514;2023-03-14T13:44:42;2.43;;;0.63;;
11767;SDS011;5941;57.652;12.514;2023-03-14T13:47:15;0.57;;;0.50;;
11767;SDS011;5941;57.652;12.514;2023-03-14T13:49:41;2.03;;;0.50;;
11767;SDS011;5941;57.652;12.514;2023-03-14T13:52:27;1.57;;;0.60;;
11767;SDS011;5941;57.652;12.514;2023-03-14T13:54:54;2.03;;;0.43;;
11767;SDS011;5941;57.652;12.514;2023-03-14T13:57:20;1.70;;;0.50;;
11767;SDS011;5941;57.652;12.514;2023-03-14T13:59:57;2.23;;;0.63;;
11767;SDS011;5941;57.652;12.514;2023-03-14T14:02:24;1.87;;;0.60;;
11767;SDS011;5941;57.652;12.514;2023-03-14T14:04:51;4.27;;;0.80;;
11767;SDS011;5941;57.652;12.514;2023-03-14T14:07:17;0.60;;;0.40;;
11767;SDS011;5941;57.652;12.514;2023-03-14T14:09:44;1.60;;;0.50;;
11767;SDS011;5941;57.652;12.514;2023-03-14T14:12:16;0.87;;;0.50;;
11767;SDS011;5941;57.652;12.514;2023-03-14T14:17:17;1.37;;;0.50;;
11767;SDS011;5941;57.652;12.514;2023-03-14T14:19:44;4.73;;;1.00;;
11767;SDS011;5941;57.652;12.514;2023-03-14T14:22:11;4.03;;;0.57;;
11767;SDS011;5941;57.652;12.514;2023-03-14T14:24:37;3.40;;;0.73;;
11767;SDS011;5941;57.652;12.514;2023-03-14T14:27:17;1.37;;;0.50;;
11767;SDS011;5941;57.652;12.514;2023-03-14T14:29:55;0.50;;;0.50;;
11767;SDS011;5941;57.652;12.514;2023-03-14T14:32:22;2.60;;;0.67;;
11767;SDS011;5941;57.652;12.514;2023-03-14T14:37:21;1.23;;;0.70;;
11767;SDS011;5941;57.652;12.514;2023-03-14T14:39:47;2.37;;;0.70;;
11767;SDS011;5941;57.652;12.514;2023-03-14T14:42:17;0.50;;;0.33;;
11767;SDS011;5941;57.652;12.514;2023-03-14T14:44:46;3.03;;;0.50;;
11767;SDS011;5941;57.652;12.514;2023-03-14T14:47:14;2.97;;;0.47;;
11767;SDS011;5941;57.652;12.514;2023-03-14T14:49:43;1.93;;;0.57;;
11767;SDS011;5941;57.652;12.514;2023-03-14T14:52:16;1.80;;;0.60;;
11767;SDS011;5941;57.652;12.514;2023-03-14T14:54:46;0.70;;;0.40;;
11767;SDS011;5941;57.652;12.514;2023-03-14T14:57:24;1.27;;;0.50;;
11767;SDS011;5941;57.652;12.514;2023-03-14T14:59:54;0.50;;;0.50;;
11767;SDS011;5941;57.652;12.514;2023-03-14T15:02:26;0.40;;;0.40;;
11767;SDS011;5941;57.652;12.514;2023-03-14T15:04:53;1.23;;;0.50;;
11767;SDS011;5941;57.652;12.514;2023-03-14T15:07:19;0.40;;;0.40;;
11767;SDS011;5941;57.652;12.514;2023-03-14T15:09:45;1.53;;;0.40;;
11767;SDS011;5941;57.652;12.514;2023-03-14T15:12:11;1.27;;;0.40;;
11767;SDS011;5941;57.652;12.514;2023-03-14T15:14:37;2.33;;;0.50;;
11767;SDS011;5941;57.652;12.514;2023-03-14T15:17:03;0.60;;;0.30;;
11767;SDS011;5941;57.652;12.514;2023-03-14T15:19:29;0.80;;;0.40;;
11767;SDS011;5941;57.652;12.514;2023-03-14T15:21:57;0.83;;;0.30;;
11767;SDS011;5941;57.652;12.514;2023-03-14T15:24:23;1.03;;;0.50;;
11767;SDS011;5941;57.652;12.514;2023-03-14T15:26:50;1.10;;;0.67;;
11767;SDS011;5941;57.652;12.514;2023-03-14T15:29:16;0.50;;;0.50;;
11767;SDS011;5941;57.652;12.514;2023-03-14T15:31:42;0.40;;;0.40;;
11767;SDS011;5941;57.652;12.514;2023-03-14T15:34:08;1.07;;;0.53;;
11767;SDS011;5941;57.652;12.514;2023-03-14T15:36:34;0.40;;;0.40;;
11767;SDS011;5941;57.652;12.514;2023-03-14T15:39:01;0.87;;;0.40;;
11767;SDS011;5941;57.652;12.514;2023-03-14T15:41:27;0.77;;;0.77;;
11767;SDS011;5941;57.652;12.514;2023-03-14T15:43:54;0.50;;;0.40;;
11767;SDS011;5941;57.652;12.514;2023-03-14T15:46:20;1.00;;;0.70;;
11767;SDS011;5941;57.652;12.514;2023-03-14T15:48:47;1.03;;;0.50;;
11767;SDS011;5941;57.652;12.514;2023-03-14T15:51:13;0.73;;;0.50;;
11767;SDS011;5941;57.652;12.514;2023-03-14T15:53:39;1.83;;;0.43;;
11767;SDS011;5941;57.652;12.514;2023-03-14T15:56:06;0.93;;;0.50;;
11767;SDS011;5941;57.652;12.514;2023-03-14T15:58:32;0.67;;;0.40;;
11767;SDS011;5941;57.652;12.514;2023-03-14T16:00:59;0.40;;;0.40;;
11767;SDS011;5941;57.652;12.514;2023-03-14T16:03:26;0.30;;;0.30;;